sensor_id;sensor_type;location;lat;lon;timestamp;P1;durP1;ratioP1;P2;durP2;ratioP2
71144;SDS011;58812;47.698;17.726;2023-06-01T00:01:37;49.37;;;38.23;;
71144;SDS011;58812;47.698;17.726;2023-06-01T00:04:03;52.45;;;33.38;;
71144;SDS011;58812;47.698;17.726;2023-06-01T00:06:29;47.67;;;33.90;;
71144;SDS011;58812;47.698;17.726;2023-06-01T00:08:55;43.87;;;29.98;;
71144;SDS011;58812;47.698;17.726;2023-06-01T00:11:21;33.67;;;26.90;;
71144;SDS011;58812;47.698;17.726;2023-06-01T00:13:47;35.83;;;31.80;;
71144;SDS011;58812;47.698;17.726;2023-06-01T00:16:14;29.13;;;26.03;;
71144;SDS011;58812;47.698;17.726;2023-06-01T00:18:40;43.40;;;28.15;;
71144;SDS011;58812;47.698;17.726;2023-06-01T00:21:05;30.77;;;22.63;;
71144;SDS011;58812;47.698;17.726;2023-06-01T00:23:31;29.10;;;18.57;;
71144;SDS011;58812;47.698;17.726;2023-06-01T00:25:56;26.50;;;15.87;;
71144;SDS011;58812;47.698;17.726;2023-06-01T00:28:22;20.00;;;12.32;;
71144;SDS011;58812;47.698;17.726;2023-06-01T00:30:48;27.57;;;15.37;;
71144;SDS011;58812;47.698;17.726;2023-06-01T00:33:13;18.57;;;11.47;;
71144;SDS011;58812;47.698;17.726;2023-06-01T00:35:39;38.63;;;21.23;;
71144;SDS011;58812;47.698;17.726;2023-06-01T00:38:04;16.77;;;12.70;;
71144;SDS011;58812;47.698;17.726;2023-06-01T00:40:31;8.32;;;7.00;;
71144;SDS011;58812;47.698;17.726;2023-06-01T00:42:57;15.53;;;12.27;;
71144;SDS011;58812;47.698;17.726;2023-06-01T00:45:22;16.23;;;12.07;;
71144;SDS011;58812;47.698;17.726;2023-06-01T00:47:48;15.53;;;11.27;;
71144;SDS011;58812;47.698;17.726;2023-06-01T00:50:13;15.70;;;12.87;;
71144;SDS011;58812;47.698;17.726;2023-06-01T00:52:39;14.43;;;12.23;;
71144;SDS011;58812;47.698;17.726;2023-06-01T00:55:05;9.23;;;7.47;;
71144;SDS011;58812;47.698;17.726;2023-06-01T00:57:32;16.17;;;9.00;;
71144;SDS011;58812;47.698;17.726;2023-06-01T00:59:58;17.45;;;9.90;;
71144;SDS011;58812;47.698;17.726;2023-06-01T01:02:24;16.40;;;7.87;;
71144;SDS011;58812;47.698;17.726;2023-06-01T01:04:49;17.95;;;7.55;;
71144;SDS011;58812;47.698;17.726;2023-06-01T01:17:42;8.18;;;5.90;;
71144;SDS011;58812;47.698;17.726;2023-06-01T01:25:41;11.63;;;7.22;;
71144;SDS011;58812;47.698;17.726;2023-06-01T01:28:37;9.70;;;5.15;;
71144;SDS011;58812;47.698;17.726;2023-06-01T01:31:08;5.20;;;4.18;;
71144;SDS011;58812;47.698;17.726;2023-06-01T01:33:37;12.93;;;4.20;;
71144;SDS011;58812;47.698;17.726;2023-06-01T01:36:03;5.22;;;3.58;;
71144;SDS011;58812;47.698;17.726;2023-06-01T01:38:35;5.12;;;2.28;;
71144;SDS011;58812;47.698;17.726;2023-06-01T01:41:01;6.85;;;3.65;;
71144;SDS011;58812;47.698;17.726;2023-06-01T01:43:27;2.72;;;2.08;;
71144;SDS011;58812;47.698;17.726;2023-06-01T01:45:57;6.80;;;3.50;;
71144;SDS011;58812;47.698;17.726;2023-06-01T01:48:48;3.25;;;2.25;;
71144;SDS011;58812;47.698;17.726;2023-06-01T01:51:19;11.00;;;5.60;;
71144;SDS011;58812;47.698;17.726;2023-06-01T01:53:47;12.05;;;5.55;;
71144;SDS011;58812;47.698;17.726;2023-06-01T01:56:15;7.40;;;4.75;;
71144;SDS011;58812;47.698;17.726;2023-06-01T01:58:43;8.23;;;6.77;;
71144;SDS011;58812;47.698;17.726;2023-06-01T02:01:10;4.70;;;3.28;;
71144;SDS011;58812;47.698;17.726;2023-06-01T02:03:37;8.75;;;4.55;;
71144;SDS011;58812;47.698;17.726;2023-06-01T02:06:02;2.90;;;2.33;;
71144;SDS011;58812;47.698;17.726;2023-06-01T02:08:27;8.23;;;3.73;;
71144;SDS011;58812;47.698;17.726;2023-06-01T02:10:53;7.25;;;4.07;;
71144;SDS011;58812;47.698;17.726;2023-06-01T02:13:18;5.23;;;4.07;;
71144;SDS011;58812;47.698;17.726;2023-06-01T02:15:44;5.13;;;3.10;;
71144;SDS011;58812;47.698;17.726;2023-06-01T02:18:09;6.70;;;3.10;;
71144;SDS011;58812;47.698;17.726;2023-06-01T02:20:36;3.87;;;2.85;;
71144;SDS011;58812;47.698;17.726;2023-06-01T02:23:01;6.73;;;3.93;;
71144;SDS011;58812;47.698;17.726;2023-06-01T02:25:26;6.93;;;4.03;;
71144;SDS011;58812;47.698;17.726;2023-06-01T02:27:52;4.28;;;2.37;;
71144;SDS011;58812;47.698;17.726;2023-06-01T02:30:17;10.43;;;3.63;;
71144;SDS011;58812;47.698;17.726;2023-06-01T02:32:43;6.60;;;3.63;;
71144;SDS011;58812;47.698;17.726;2023-06-01T02:35:10;14.07;;;4.05;;
71144;SDS011;58812;47.698;17.726;2023-06-01T02:37:35;12.97;;;4.00;;
71144;SDS011;58812;47.698;17.726;2023-06-01T02:40:01;3.23;;;2.33;;
71144;SDS011;58812;47.698;17.726;2023-06-01T02:42:26;1.97;;;1.20;;
71144;SDS011;58812;47.698;17.726;2023-06-01T02:44:52;5.93;;;2.67;;
71144;SDS011;58812;47.698;17.726;2023-06-01T02:47:17;2.80;;;1.93;;
71144;SDS011;58812;47.698;17.726;2023-06-01T02:49:43;4.20;;;2.27;;
71144;SDS011;58812;47.698;17.726;2023-06-01T02:52:08;4.30;;;2.73;;
71144;SDS011;58812;47.698;17.726;2023-06-01T02:54:33;3.20;;;1.60;;
71144;SDS011;58812;47.698;17.726;2023-06-01T02:56:59;3.30;;;2.27;;
71144;SDS011;58812;47.698;17.726;2023-06-01T02:59:24;5.70;;;3.67;;
71144;SDS011;58812;47.698;17.726;2023-06-01T03:01:50;4.10;;;1.13;;
71144;SDS011;58812;47.698;17.726;2023-06-01T03:04:15;3.73;;;2.87;;
71144;SDS011;58812;47.698;17.726;2023-06-01T03:06:42;4.50;;;2.72;;
71144;SDS011;58812;47.698;17.726;2023-06-01T03:09:08;2.50;;;1.33;;
71144;SDS011;58812;47.698;17.726;2023-06-01T03:11:41;6.50;;;3.75;;
71144;SDS011;58812;47.698;17.726;2023-06-01T03:14:07;2.80;;;1.98;;
71144;SDS011;58812;47.698;17.726;2023-06-01T03:16:33;5.70;;;1.62;;
71144;SDS011;58812;47.698;17.726;2023-06-01T03:18:59;3.07;;;2.80;;
71144;SDS011;58812;47.698;17.726;2023-06-01T03:21:25;6.65;;;4.40;;
71144;SDS011;58812;47.698;17.726;2023-06-01T03:23:52;3.77;;;2.53;;
71144;SDS011;58812;47.698;17.726;2023-06-01T03:26:17;5.18;;;4.35;;
71144;SDS011;58812;47.698;17.726;2023-06-01T03:28:46;2.62;;;1.90;;
71144;SDS011;58812;47.698;17.726;2023-06-01T03:31:11;2.83;;;2.30;;
71144;SDS011;58812;47.698;17.726;2023-06-01T03:33:37;2.62;;;1.48;;
71144;SDS011;58812;47.698;17.726;2023-06-01T03:36:03;3.60;;;2.53;;
71144;SDS011;58812;47.698;17.726;2023-06-01T03:38:29;5.18;;;3.05;;
71144;SDS011;58812;47.698;17.726;2023-06-01T03:40:55;5.37;;;2.58;;
71144;SDS011;58812;47.698;17.726;2023-06-01T03:43:20;4.57;;;2.33;;
71144;SDS011;58812;47.698;17.726;2023-06-01T03:45:46;2.97;;;1.67;;
71144;SDS011;58812;47.698;17.726;2023-06-01T03:48:11;3.27;;;1.70;;
71144;SDS011;58812;47.698;17.726;2023-06-01T03:50:36;4.30;;;2.00;;
71144;SDS011;58812;47.698;17.726;2023-06-01T03:53:02;3.23;;;1.60;;
71144;SDS011;58812;47.698;17.726;2023-06-01T03:55:27;2.60;;;2.23;;
71144;SDS011;58812;47.698;17.726;2023-06-01T03:57:54;2.78;;;1.52;;
71144;SDS011;58812;47.698;17.726;2023-06-01T04:00:19;4.03;;;1.40;;
71144;SDS011;58812;47.698;17.726;2023-06-01T04:02:46;2.55;;;1.17;;
71144;SDS011;58812;47.698;17.726;2023-06-01T04:05:17;2.42;;;1.58;;
71144;SDS011;58812;47.698;17.726;2023-06-01T04:07:47;4.63;;;4.23;;
71144;SDS011;58812;47.698;17.726;2023-06-01T04:10:14;2.22;;;1.33;;
71144;SDS011;58812;47.698;17.726;2023-06-01T04:12:41;1.85;;;1.37;;
71144;SDS011;58812;47.698;17.726;2023-06-01T04:15:08;1.30;;;0.52;;
71144;SDS011;58812;47.698;17.726;2023-06-01T04:17:38;6.43;;;2.17;;
71144;SDS011;58812;47.698;17.726;2023-06-01T04:20:04;6.60;;;1.83;;
71144;SDS011;58812;47.698;17.726;2023-06-01T04:22:34;3.50;;;1.95;;
71144;SDS011;58812;47.698;17.726;2023-06-01T04:25:06;3.62;;;1.87;;
71144;SDS011;58812;47.698;17.726;2023-06-01T04:27:33;1.70;;;1.12;;
71144;SDS011;58812;47.698;17.726;2023-06-01T04:30:02;3.93;;;1.30;;
71144;SDS011;58812;47.698;17.726;2023-06-01T04:32:35;2.05;;;1.33;;
71144;SDS011;58812;47.698;17.726;2023-06-01T04:35:03;1.80;;;0.90;;
71144;SDS011;58812;47.698;17.726;2023-06-01T04:37:41;7.72;;;1.73;;
71144;SDS011;58812;47.698;17.726;2023-06-01T04:40:08;3.05;;;1.75;;
71144;SDS011;58812;47.698;17.726;2023-06-01T04:42:34;1.97;;;1.30;;
71144;SDS011;58812;47.698;17.726;2023-06-01T04:45:01;1.87;;;1.42;;
71144;SDS011;58812;47.698;17.726;2023-06-01T04:47:31;4.28;;;2.62;;
71144;SDS011;58812;47.698;17.726;2023-06-01T04:49:57;2.20;;;1.05;;
71144;SDS011;58812;47.698;17.726;2023-06-01T04:52:23;1.93;;;1.33;;
71144;SDS011;58812;47.698;17.726;2023-06-01T04:54:49;2.37;;;1.40;;
71144;SDS011;58812;47.698;17.726;2023-06-01T04:57:14;1.53;;;0.70;;
71144;SDS011;58812;47.698;17.726;2023-06-01T04:59:41;3.00;;;1.37;;
71144;SDS011;58812;47.698;17.726;2023-06-01T05:02:07;1.80;;;0.90;;
71144;SDS011;58812;47.698;17.726;2023-06-01T05:04:32;2.20;;;1.58;;
71144;SDS011;58812;47.698;17.726;2023-06-01T05:06:58;3.67;;;1.90;;
71144;SDS011;58812;47.698;17.726;2023-06-01T05:09:23;1.40;;;0.67;;
71144;SDS011;58812;47.698;17.726;2023-06-01T05:11:48;2.17;;;1.63;;
71144;SDS011;58812;47.698;17.726;2023-06-01T05:14:14;1.12;;;0.45;;
71144;SDS011;58812;47.698;17.726;2023-06-01T05:16:40;1.43;;;0.63;;
71144;SDS011;58812;47.698;17.726;2023-06-01T05:19:05;1.10;;;0.40;;
71144;SDS011;58812;47.698;17.726;2023-06-01T05:21:30;1.43;;;0.60;;
71144;SDS011;58812;47.698;17.726;2023-06-01T05:23:58;1.30;;;0.52;;
71144;SDS011;58812;47.698;17.726;2023-06-01T05:26:24;2.40;;;1.27;;
71144;SDS011;58812;47.698;17.726;2023-06-01T05:28:50;2.25;;;1.15;;
71144;SDS011;58812;47.698;17.726;2023-06-01T05:31:15;2.37;;;1.40;;
71144;SDS011;58812;47.698;17.726;2023-06-01T05:33:41;3.07;;;1.50;;
71144;SDS011;58812;47.698;17.726;2023-06-01T05:36:07;1.40;;;0.70;;
71144;SDS011;58812;47.698;17.726;2023-06-01T05:38:32;1.98;;;0.82;;
71144;SDS011;58812;47.698;17.726;2023-06-01T05:40:58;2.17;;;1.23;;
71144;SDS011;58812;47.698;17.726;2023-06-01T05:43:23;2.27;;;1.20;;
71144;SDS011;58812;47.698;17.726;2023-06-01T05:45:48;1.98;;;1.05;;
71144;SDS011;58812;47.698;17.726;2023-06-01T05:48:14;1.57;;;0.73;;
71144;SDS011;58812;47.698;17.726;2023-06-01T05:50:40;2.03;;;0.90;;
71144;SDS011;58812;47.698;17.726;2023-06-01T05:53:07;2.47;;;0.80;;
71144;SDS011;58812;47.698;17.726;2023-06-01T05:55:33;1.45;;;0.60;;
71144;SDS011;58812;47.698;17.726;2023-06-01T05:57:58;1.73;;;0.90;;
71144;SDS011;58812;47.698;17.726;2023-06-01T06:00:24;2.10;;;1.00;;
71144;SDS011;58812;47.698;17.726;2023-06-01T06:02:49;2.10;;;1.30;;
71144;SDS011;58812;47.698;17.726;2023-06-01T06:05:15;2.23;;;1.63;;
71144;SDS011;58812;47.698;17.726;2023-06-01T06:07:40;4.18;;;1.35;;
71144;SDS011;58812;47.698;17.726;2023-06-01T06:10:06;2.30;;;1.47;;
71144;SDS011;58812;47.698;17.726;2023-06-01T06:12:32;2.95;;;1.33;;
71144;SDS011;58812;47.698;17.726;2023-06-01T06:14:58;1.77;;;0.73;;
71144;SDS011;58812;47.698;17.726;2023-06-01T06:17:23;2.40;;;0.93;;
71144;SDS011;58812;47.698;17.726;2023-06-01T06:19:48;1.80;;;0.90;;
71144;SDS011;58812;47.698;17.726;2023-06-01T06:22:14;1.73;;;0.80;;
71144;SDS011;58812;47.698;17.726;2023-06-01T06:24:40;1.93;;;1.10;;
71144;SDS011;58812;47.698;17.726;2023-06-01T06:27:07;1.50;;;0.60;;
71144;SDS011;58812;47.698;17.726;2023-06-01T06:29:33;1.92;;;0.90;;
71144;SDS011;58812;47.698;17.726;2023-06-01T06:31:58;1.13;;;0.43;;
71144;SDS011;58812;47.698;17.726;2023-06-01T06:34:24;1.80;;;0.73;;
71144;SDS011;58812;47.698;17.726;2023-06-01T06:36:49;3.70;;;0.80;;
71144;SDS011;58812;47.698;17.726;2023-06-01T06:39:17;1.65;;;0.85;;
71144;SDS011;58812;47.698;17.726;2023-06-01T06:41:43;1.87;;;0.70;;
71144;SDS011;58812;47.698;17.726;2023-06-01T06:44:08;2.33;;;1.33;;
71144;SDS011;58812;47.698;17.726;2023-06-01T06:46:34;1.87;;;0.87;;
71144;SDS011;58812;47.698;17.726;2023-06-01T06:48:59;1.73;;;0.60;;
71144;SDS011;58812;47.698;17.726;2023-06-01T06:51:25;1.37;;;0.50;;
71144;SDS011;58812;47.698;17.726;2023-06-01T06:53:51;1.63;;;0.80;;
71144;SDS011;58812;47.698;17.726;2023-06-01T06:56:16;1.75;;;0.80;;
71144;SDS011;58812;47.698;17.726;2023-06-01T06:58:42;1.80;;;0.80;;
71144;SDS011;58812;47.698;17.726;2023-06-01T07:01:09;2.00;;;1.08;;
71144;SDS011;58812;47.698;17.726;2023-06-01T07:03:35;2.23;;;0.90;;
71144;SDS011;58812;47.698;17.726;2023-06-01T07:06:00;1.85;;;0.90;;
71144;SDS011;58812;47.698;17.726;2023-06-01T07:08:26;1.60;;;0.80;;
71144;SDS011;58812;47.698;17.726;2023-06-01T07:10:52;1.47;;;0.87;;
71144;SDS011;58812;47.698;17.726;2023-06-01T07:13:19;8.43;;;0.80;;
71144;SDS011;58812;47.698;17.726;2023-06-01T07:15:44;1.37;;;0.60;;
71144;SDS011;58812;47.698;17.726;2023-06-01T07:18:10;1.90;;;0.80;;
71144;SDS011;58812;47.698;17.726;2023-06-01T07:20:35;1.27;;;0.50;;
71144;SDS011;58812;47.698;17.726;2023-06-01T07:23:00;1.80;;;0.90;;
71144;SDS011;58812;47.698;17.726;2023-06-01T07:25:26;1.57;;;0.70;;
71144;SDS011;58812;47.698;17.726;2023-06-01T07:27:51;1.60;;;0.97;;
71144;SDS011;58812;47.698;17.726;2023-06-01T07:30:17;1.47;;;0.70;;
71144;SDS011;58812;47.698;17.726;2023-06-01T07:32:42;1.60;;;0.70;;
71144;SDS011;58812;47.698;17.726;2023-06-01T07:35:08;1.30;;;0.50;;
71144;SDS011;58812;47.698;17.726;2023-06-01T07:37:34;1.17;;;0.40;;
71144;SDS011;58812;47.698;17.726;2023-06-01T07:40:00;1.58;;;0.68;;
71144;SDS011;58812;47.698;17.726;2023-06-01T07:42:25;1.60;;;0.80;;
71144;SDS011;58812;47.698;17.726;2023-06-01T07:44:51;1.47;;;0.50;;
71144;SDS011;58812;47.698;17.726;2023-06-01T07:47:16;2.28;;;1.00;;
71144;SDS011;58812;47.698;17.726;2023-06-01T07:49:42;2.30;;;1.00;;
71144;SDS011;58812;47.698;17.726;2023-06-01T07:52:07;3.45;;;2.15;;
71144;SDS011;58812;47.698;17.726;2023-06-01T07:54:34;3.90;;;1.57;;
71144;SDS011;58812;47.698;17.726;2023-06-01T07:57:01;1.45;;;0.60;;
71144;SDS011;58812;47.698;17.726;2023-06-01T07:59:28;1.50;;;0.60;;
71144;SDS011;58812;47.698;17.726;2023-06-01T08:01:53;1.70;;;0.70;;
71144;SDS011;58812;47.698;17.726;2023-06-01T08:04:21;1.63;;;0.60;;
71144;SDS011;58812;47.698;17.726;2023-06-01T08:06:46;1.30;;;0.57;;
71144;SDS011;58812;47.698;17.726;2023-06-01T08:09:12;1.60;;;0.73;;
71144;SDS011;58812;47.698;17.726;2023-06-01T08:11:38;2.20;;;1.00;;
71144;SDS011;58812;47.698;17.726;2023-06-01T08:14:03;1.70;;;0.80;;
71144;SDS011;58812;47.698;17.726;2023-06-01T08:16:32;1.70;;;0.70;;
71144;SDS011;58812;47.698;17.726;2023-06-01T08:18:58;1.90;;;1.00;;
71144;SDS011;58812;47.698;17.726;2023-06-01T08:21:24;1.97;;;1.30;;
71144;SDS011;58812;47.698;17.726;2023-06-01T08:23:50;1.83;;;1.00;;
71144;SDS011;58812;47.698;17.726;2023-06-01T08:26:22;3.30;;;1.30;;
71144;SDS011;58812;47.698;17.726;2023-06-01T08:28:48;2.03;;;1.00;;
71144;SDS011;58812;47.698;17.726;2023-06-01T08:31:18;2.53;;;1.20;;
71144;SDS011;58812;47.698;17.726;2023-06-01T08:33:44;1.90;;;0.85;;
71144;SDS011;58812;47.698;17.726;2023-06-01T08:36:10;2.20;;;1.50;;
71144;SDS011;58812;47.698;17.726;2023-06-01T08:38:36;1.93;;;0.90;;
71144;SDS011;58812;47.698;17.726;2023-06-01T08:41:03;1.90;;;1.00;;
71144;SDS011;58812;47.698;17.726;2023-06-01T08:43:35;1.87;;;0.55;;
71144;SDS011;58812;47.698;17.726;2023-06-01T08:46:04;2.00;;;1.20;;
71144;SDS011;58812;47.698;17.726;2023-06-01T08:48:29;1.77;;;0.88;;
71144;SDS011;58812;47.698;17.726;2023-06-01T08:50:56;1.98;;;0.95;;
71144;SDS011;58812;47.698;17.726;2023-06-01T08:53:23;1.90;;;1.00;;
71144;SDS011;58812;47.698;17.726;2023-06-01T08:55:53;3.95;;;2.05;;
71144;SDS011;58812;47.698;17.726;2023-06-01T08:58:20;1.92;;;0.93;;
71144;SDS011;58812;47.698;17.726;2023-06-01T09:00:49;10.37;;;1.60;;
71144;SDS011;58812;47.698;17.726;2023-06-01T09:03:15;2.65;;;1.60;;
71144;SDS011;58812;47.698;17.726;2023-06-01T09:05:41;2.85;;;1.45;;
71144;SDS011;58812;47.698;17.726;2023-06-01T09:08:07;2.97;;;1.40;;
71144;SDS011;58812;47.698;17.726;2023-06-01T09:10:35;1.73;;;0.80;;
71144;SDS011;58812;47.698;17.726;2023-06-01T09:13:00;2.10;;;1.37;;
71144;SDS011;58812;47.698;17.726;2023-06-01T09:15:26;2.00;;;1.17;;
71144;SDS011;58812;47.698;17.726;2023-06-01T09:17:52;2.00;;;1.10;;
71144;SDS011;58812;47.698;17.726;2023-06-01T09:20:29;1.92;;;0.95;;
71144;SDS011;58812;47.698;17.726;2023-06-01T09:22:57;2.25;;;0.90;;
71144;SDS011;58812;47.698;17.726;2023-06-01T09:25:23;1.60;;;0.80;;
71144;SDS011;58812;47.698;17.726;2023-06-01T09:27:52;2.57;;;1.00;;
71144;SDS011;58812;47.698;17.726;2023-06-01T09:30:20;1.65;;;0.82;;
71144;SDS011;58812;47.698;17.726;2023-06-01T09:32:47;1.73;;;0.90;;
71144;SDS011;58812;47.698;17.726;2023-06-01T09:35:16;1.30;;;0.50;;
71144;SDS011;58812;47.698;17.726;2023-06-01T09:38:01;2.45;;;1.48;;
71144;SDS011;58812;47.698;17.726;2023-06-01T09:40:30;3.37;;;1.20;;
71144;SDS011;58812;47.698;17.726;2023-06-01T09:42:56;1.70;;;0.75;;
71144;SDS011;58812;47.698;17.726;2023-06-01T09:45:22;2.73;;;1.80;;
71144;SDS011;58812;47.698;17.726;2023-06-01T09:47:49;2.75;;;1.05;;
71144;SDS011;58812;47.698;17.726;2023-06-01T09:50:31;1.73;;;0.65;;
71144;SDS011;58812;47.698;17.726;2023-06-01T09:53:00;1.60;;;0.68;;
71144;SDS011;58812;47.698;17.726;2023-06-01T09:55:27;4.12;;;0.90;;
71144;SDS011;58812;47.698;17.726;2023-06-01T09:57:52;1.50;;;0.67;;
71144;SDS011;58812;47.698;17.726;2023-06-01T10:00:24;1.97;;;1.00;;
71144;SDS011;58812;47.698;17.726;2023-06-01T10:02:50;1.90;;;1.05;;
71144;SDS011;58812;47.698;17.726;2023-06-01T10:05:17;1.52;;;0.68;;
71144;SDS011;58812;47.698;17.726;2023-06-01T10:07:43;3.45;;;1.10;;
71144;SDS011;58812;47.698;17.726;2023-06-01T10:10:09;2.10;;;1.63;;
71144;SDS011;58812;47.698;17.726;2023-06-01T10:12:39;2.67;;;1.25;;
71144;SDS011;58812;47.698;17.726;2023-06-01T10:15:04;4.47;;;1.43;;
71144;SDS011;58812;47.698;17.726;2023-06-01T10:17:30;1.80;;;0.90;;
71144;SDS011;58812;47.698;17.726;2023-06-01T10:19:58;1.98;;;1.12;;
71144;SDS011;58812;47.698;17.726;2023-06-01T10:22:26;1.40;;;0.57;;
71144;SDS011;58812;47.698;17.726;2023-06-01T10:24:54;2.95;;;1.10;;
71144;SDS011;58812;47.698;17.726;2023-06-01T10:27:27;1.95;;;1.00;;
71144;SDS011;58812;47.698;17.726;2023-06-01T10:30:00;3.13;;;2.30;;
71144;SDS011;58812;47.698;17.726;2023-06-01T10:32:44;2.08;;;1.27;;
71144;SDS011;58812;47.698;17.726;2023-06-01T10:40:44;4.35;;;1.62;;
71144;SDS011;58812;47.698;17.726;2023-06-01T10:46:01;1.90;;;1.20;;
71144;SDS011;58812;47.698;17.726;2023-06-01T10:51:20;3.33;;;1.37;;
71144;SDS011;58812;47.698;17.726;2023-06-01T10:53:48;2.22;;;1.35;;
71144;SDS011;58812;47.698;17.726;2023-06-01T11:01:33;2.00;;;1.30;;
71144;SDS011;58812;47.698;17.726;2023-06-01T11:03:59;2.45;;;1.37;;
71144;SDS011;58812;47.698;17.726;2023-06-01T11:06:25;2.03;;;0.90;;
71144;SDS011;58812;47.698;17.726;2023-06-01T11:08:55;2.10;;;1.17;;
71144;SDS011;58812;47.698;17.726;2023-06-01T11:11:22;1.90;;;0.98;;
71144;SDS011;58812;47.698;17.726;2023-06-01T11:14:07;1.60;;;0.80;;
71144;SDS011;58812;47.698;17.726;2023-06-01T11:16:36;3.80;;;1.63;;
71144;SDS011;58812;47.698;17.726;2023-06-01T11:19:02;1.77;;;0.80;;
71144;SDS011;58812;47.698;17.726;2023-06-01T11:21:39;1.80;;;0.90;;
71144;SDS011;58812;47.698;17.726;2023-06-01T11:24:11;2.53;;;1.30;;
71144;SDS011;58812;47.698;17.726;2023-06-01T11:26:45;2.47;;;1.33;;
71144;SDS011;58812;47.698;17.726;2023-06-01T11:29:16;2.92;;;1.30;;
71144;SDS011;58812;47.698;17.726;2023-06-01T11:31:45;1.83;;;1.08;;
71144;SDS011;58812;47.698;17.726;2023-06-01T11:34:13;1.90;;;1.10;;
71144;SDS011;58812;47.698;17.726;2023-06-01T11:36:41;2.10;;;1.27;;
71144;SDS011;58812;47.698;17.726;2023-06-01T11:42:09;3.47;;;1.25;;
71144;SDS011;58812;47.698;17.726;2023-06-01T11:44:37;1.73;;;0.88;;
71144;SDS011;58812;47.698;17.726;2023-06-01T11:47:04;1.95;;;0.70;;
71144;SDS011;58812;47.698;17.726;2023-06-01T11:49:31;1.80;;;1.00;;
71144;SDS011;58812;47.698;17.726;2023-06-01T11:52:08;2.13;;;1.10;;
71144;SDS011;58812;47.698;17.726;2023-06-01T11:54:34;2.65;;;1.83;;
71144;SDS011;58812;47.698;17.726;2023-06-01T11:56:59;2.05;;;1.23;;
71144;SDS011;58812;47.698;17.726;2023-06-01T11:59:32;2.30;;;0.80;;
71144;SDS011;58812;47.698;17.726;2023-06-01T12:02:15;2.05;;;1.20;;
71144;SDS011;58812;47.698;17.726;2023-06-01T12:04:43;2.37;;;1.20;;
71144;SDS011;58812;47.698;17.726;2023-06-01T12:07:19;2.55;;;0.65;;
71144;SDS011;58812;47.698;17.726;2023-06-01T12:09:45;3.25;;;1.30;;
71144;SDS011;58812;47.698;17.726;2023-06-01T12:12:11;2.37;;;1.33;;
71144;SDS011;58812;47.698;17.726;2023-06-01T12:14:37;2.28;;;1.45;;
71144;SDS011;58812;47.698;17.726;2023-06-01T12:17:04;1.67;;;0.70;;
71144;SDS011;58812;47.698;17.726;2023-06-01T12:19:30;1.70;;;0.73;;
71144;SDS011;58812;47.698;17.726;2023-06-01T12:21:57;1.50;;;0.60;;
71144;SDS011;58812;47.698;17.726;2023-06-01T12:24:29;2.70;;;1.65;;
71144;SDS011;58812;47.698;17.726;2023-06-01T12:26:58;2.03;;;1.00;;
71144;SDS011;58812;47.698;17.726;2023-06-01T12:29:36;1.65;;;0.70;;
71144;SDS011;58812;47.698;17.726;2023-06-01T12:32:03;2.40;;;1.13;;
71144;SDS011;58812;47.698;17.726;2023-06-01T12:34:29;1.65;;;0.77;;
71144;SDS011;58812;47.698;17.726;2023-06-01T12:36:55;1.90;;;1.00;;
71144;SDS011;58812;47.698;17.726;2023-06-01T12:39:33;1.67;;;0.70;;
71144;SDS011;58812;47.698;17.726;2023-06-01T12:42:02;2.22;;;0.95;;
71144;SDS011;58812;47.698;17.726;2023-06-01T12:44:30;2.83;;;1.48;;
71144;SDS011;58812;47.698;17.726;2023-06-01T12:46:57;1.83;;;0.82;;
71144;SDS011;58812;47.698;17.726;2023-06-01T12:49:24;2.07;;;1.27;;
71144;SDS011;58812;47.698;17.726;2023-06-01T12:51:49;2.00;;;1.12;;
71144;SDS011;58812;47.698;17.726;2023-06-01T12:54:15;1.83;;;0.80;;
71144;SDS011;58812;47.698;17.726;2023-06-01T12:56:40;1.63;;;0.83;;
71144;SDS011;58812;47.698;17.726;2023-06-01T12:59:06;2.05;;;1.17;;
71144;SDS011;58812;47.698;17.726;2023-06-01T13:01:32;1.70;;;0.93;;
71144;SDS011;58812;47.698;17.726;2023-06-01T13:03:57;1.95;;;1.10;;
71144;SDS011;58812;47.698;17.726;2023-06-01T13:06:22;1.60;;;0.60;;
71144;SDS011;58812;47.698;17.726;2023-06-01T13:08:49;2.10;;;1.08;;
71144;SDS011;58812;47.698;17.726;2023-06-01T13:11:14;1.37;;;0.60;;
71144;SDS011;58812;47.698;17.726;2023-06-01T13:13:40;4.28;;;0.50;;
71144;SDS011;58812;47.698;17.726;2023-06-01T13:16:06;1.40;;;0.60;;
71144;SDS011;58812;47.698;17.726;2023-06-01T13:18:32;2.70;;;0.93;;
71144;SDS011;58812;47.698;17.726;2023-06-01T13:20:58;2.07;;;1.40;;
71144;SDS011;58812;47.698;17.726;2023-06-01T13:23:23;1.73;;;0.77;;
71144;SDS011;58812;47.698;17.726;2023-06-01T13:25:48;2.95;;;0.77;;
71144;SDS011;58812;47.698;17.726;2023-06-01T13:28:14;1.73;;;0.77;;
71144;SDS011;58812;47.698;17.726;2023-06-01T13:30:40;2.20;;;1.33;;
71144;SDS011;58812;47.698;17.726;2023-06-01T13:33:07;2.55;;;1.95;;
71144;SDS011;58812;47.698;17.726;2023-06-01T13:35:33;1.70;;;0.77;;
71144;SDS011;58812;47.698;17.726;2023-06-01T13:37:59;1.87;;;1.17;;
71144;SDS011;58812;47.698;17.726;2023-06-01T13:40:25;1.80;;;0.85;;
71144;SDS011;58812;47.698;17.726;2023-06-01T13:42:52;1.80;;;0.98;;
71144;SDS011;58812;47.698;17.726;2023-06-01T13:45:18;1.83;;;0.90;;
71144;SDS011;58812;47.698;17.726;2023-06-01T13:47:44;2.33;;;1.52;;
71144;SDS011;58812;47.698;17.726;2023-06-01T13:50:10;2.00;;;1.10;;
71144;SDS011;58812;47.698;17.726;2023-06-01T13:52:37;1.98;;;1.00;;
71144;SDS011;58812;47.698;17.726;2023-06-01T13:55:03;2.20;;;1.20;;
71144;SDS011;58812;47.698;17.726;2023-06-01T13:57:29;1.70;;;0.87;;
71144;SDS011;58812;47.698;17.726;2023-06-01T13:59:55;2.12;;;1.12;;
71144;SDS011;58812;47.698;17.726;2023-06-01T14:02:20;1.90;;;1.00;;
71144;SDS011;58812;47.698;17.726;2023-06-01T14:04:46;1.93;;;1.10;;
71144;SDS011;58812;47.698;17.726;2023-06-01T14:07:11;2.03;;;1.08;;
71144;SDS011;58812;47.698;17.726;2023-06-01T14:09:36;2.20;;;1.23;;
71144;SDS011;58812;47.698;17.726;2023-06-01T14:12:02;2.50;;;1.77;;
71144;SDS011;58812;47.698;17.726;2023-06-01T14:14:27;2.78;;;1.15;;
71144;SDS011;58812;47.698;17.726;2023-06-01T14:16:53;1.80;;;1.10;;
71144;SDS011;58812;47.698;17.726;2023-06-01T14:19:18;2.10;;;1.10;;
71144;SDS011;58812;47.698;17.726;2023-06-01T14:21:44;2.22;;;1.65;;
71144;SDS011;58812;47.698;17.726;2023-06-01T14:24:09;2.10;;;1.20;;
71144;SDS011;58812;47.698;17.726;2023-06-01T14:26:35;2.67;;;1.13;;
71144;SDS011;58812;47.698;17.726;2023-06-01T14:29:00;1.77;;;0.90;;
71144;SDS011;58812;47.698;17.726;2023-06-01T14:31:26;2.20;;;1.27;;
71144;SDS011;58812;47.698;17.726;2023-06-01T14:33:51;2.90;;;1.15;;
71144;SDS011;58812;47.698;17.726;2023-06-01T14:36:17;3.37;;;1.67;;
71144;SDS011;58812;47.698;17.726;2023-06-01T14:38:42;1.80;;;0.90;;
71144;SDS011;58812;47.698;17.726;2023-06-01T14:41:07;2.15;;;1.45;;
71144;SDS011;58812;47.698;17.726;2023-06-01T14:43:33;4.43;;;2.63;;
71144;SDS011;58812;47.698;17.726;2023-06-01T14:45:59;3.33;;;1.60;;
71144;SDS011;58812;47.698;17.726;2023-06-01T14:48:24;2.78;;;1.10;;
71144;SDS011;58812;47.698;17.726;2023-06-01T14:50:50;2.33;;;1.33;;
71144;SDS011;58812;47.698;17.726;2023-06-01T14:53:16;1.70;;;0.82;;
71144;SDS011;58812;47.698;17.726;2023-06-01T14:55:41;2.80;;;1.27;;
71144;SDS011;58812;47.698;17.726;2023-06-01T14:58:07;2.50;;;1.20;;
71144;SDS011;58812;47.698;17.726;2023-06-01T15:00:34;2.00;;;0.90;;
71144;SDS011;58812;47.698;17.726;2023-06-01T15:03:00;2.90;;;1.35;;
71144;SDS011;58812;47.698;17.726;2023-06-01T15:05:26;1.80;;;0.90;;
71144;SDS011;58812;47.698;17.726;2023-06-01T15:07:51;2.67;;;1.17;;